< Typhoon 201827 2018 Season Typhoon 201829 >
Typhoon 201828 (MAN-YI)
General InformationTrack Information on Google MapsDetailed Wind InformationForecast History on Google MapsAccess Analytics MapList of All Images || NewsDisaster Info.WeblogTrackbackTyphoon FrontTwiphoonTyphoon Now!Typhoon ImaginationJMA Disaster Info. XMLResourceGoogle EarthGE AnimationAtom FeedGeoJSON
Detalied Best Track (Time Zone = UTC)
Year Month Day Hour Lat. Long. Pressure (hPa) Wind (kt) Class Image Chart
2018 11 20 12 5.0 152.6 1004 0 2 Image Chart
2018 11 20 18 5.8 152.2 1000 35 3 Image Chart
2018 11 21 00 6.4 150.8 1000 35 3 Image Chart
2018 11 21 06 7.7 149.5 1000 35 3 Image Chart
2018 11 21 12 8.6 146.5 998 40 3 Image Chart
2018 11 21 18 9.4 143.8 992 45 3 Image Chart
2018 11 22 00 10.4 141.7 985 55 4 Image Chart
2018 11 22 06 11.8 139.8 980 60 4 Image Chart
2018 11 22 12 12.9 138.2 975 65 5 Image Chart
2018 11 22 18 13.4 136.9 970 70 5 Image Chart
2018 11 23 00 14.8 136.1 965 75 5 Image Chart
2018 11 23 06 15.7 135.8 965 75 5 Image Chart
2018 11 23 12 16.4 135.6 965 75 5 Image Chart
2018 11 23 18 17.4 135.3 965 75 5 Image Chart
2018 11 24 00 18.1 135.3 965 75 5 Image Chart
2018 11 24 06 18.3 135.9 965 75 5 Image Chart
2018 11 24 12 18.7 136.2 960 80 5 Image Chart
2018 11 24 18 18.5 136.1 960 80 5 Image Chart
2018 11 25 00 18.3 136.0 960 80 5 Image Chart
2018 11 25 06 18.2 135.6 970 75 5 Image Chart
2018 11 25 12 18.3 134.9 980 65 5 Image Chart
2018 11 25 18 19.1 134.0 992 50 4 Image Chart
2018 11 26 00 19.7 133.0 998 40 3 Image Chart
2018 11 26 06 20.2 132.4 1000 35 3 Image Chart
2018 11 26 12 21.0 132.0 1008 0 2 Image Chart
2018 11 26 18 21.9 132.0 1010 0 2 Image Chart
2018 11 27 00 22.7 132.3 1006 35 3 Image Chart
2018 11 27 06 23.5 132.4 1008 0 2 Image Chart
2018 11 27 12 23.3 133.2 1012 0 2 Image Chart
2018 11 27 18 24.3 134.5 1012 0 2 Image Chart
2018 11 28 00 25.6 135.8 1012 0 2 Image Chart
2018 11 28 06 27.8 137.9 1010 0 6 Image Chart
2018 11 28 12 30.8 141.1 1008 0 6 Image Chart
2018 11 28 18 32.2 144.9 1006 0 6 Image Chart
2018 11 29 00 33.7 149.4 1002 0 6 Image Chart
2018 11 29 06 35.1 154.5 1000 0 6 Image Chart
2018 11 29 12 36.7 159.5 1000 0 6 Image Chart
2018 11 29 18 37.7 164.2 998 0 6 Image Chart
2018 11 30 00 39.2 169.4 1000 0 6 Image Chart
2018 11 30 06 40.8 174.6 1000 0 6 Image Chart
2018 11 30 12 42.5 180.2 1000 0 6 Image Chart
Japan Meteorological Agency Best Track Data | Correction Date : 2019-01-11
< Typhoon 201827 2018 Season Typhoon 201829 >

Help